Cincinnati Northern Kentucky International Airport
KCVG : now visible

Airfield :











YOU CAN JOIN US ON...

 
LOGIN :

Register | Disclaimer

   EN    FR    IT 

 









Legend :    VFR   Marginal VFR   IFR   Intensive IFR   Very Intensive IFR
Visi :
Ceiling :
>= 8 km
>= 3000ft
5 to 8 km
1000 to 3000 ft
1500m to 5 km
500 to 1000 ft
800 to 1500m
200 to 500 ft
< 800m
< 200 ft
Symbols :   Thunderstorms  Fog  Heavy snow  Heavy precipitations  Wind > 20 kt






- Airport Elevation : 896 ft
- IATA code : CVG


KCVG - Cincinnati Northern Kentucky International

CURRENT METAR :
  • 070352Z 35011KT 1SM R18C/3500VP6000FT VCTS -RA BR SCT003 OVC009 12/12 A2999 RMK AO2 SFC VIS 2 DZE52RAB03E18B52 SLP155 P0012 T01220122 $

EXPIRED METARs :
  • 070318Z 13005KT 2SM -DZ BR SCT003 OVC009 12/12 A2998 RMK AO2 SFC VIS 3 LTG DSNT E RAB03E18 P0003 T01220122 $
  • 070252Z 14006KT 1/2SM R18C/P6000FT -DZ BR OVC004 12/12 A2998 RMK AO2 SFC VIS 1 1/4 LTG DSNT SE RAE04B27E50DZB04E27B50 SLP151 P0004 60051 T01220122 56010 $
  • 070243Z 12006KT 1/2SM R18C/P6000FT RA BR OVC004 12/12 A2998 RMK AO2 SFC VIS 1 1/4 LTG DSNT SE RAE04B27DZB04E27 P0003 T01220122 $
  • 070227Z 11006KT 1SM R18C/P6000FT -RA BR OVC005 12/12 A2998 RMK AO2 SFC VIS 1 1/4 LTG DSNT SE AND S RAE04B27DZB04E27 P0001 T01170117 $
  • 070206Z 06003KT 2SM -DZ BR OVC007 12/12 A2998 RMK AO2 LTG DSNT N AND S AND NW RAE04DZB04 P0001 T01170117 $
  • 070152Z 00000KT 3SM -RA BR OVC008 12/12 A2999 RMK AO2 LTG DSNT NW SLP154 CIG 006V010 P0021 T01170117 $
  • 070127Z 00000KT 3SM -RA BR SCT005 BKN011 OVC018 12/12 A2999 RMK AO2 P0017 T01220122 $
  • 070115Z 00000KT 2 1/2SM R18C/4500VP6000FT -RA BR FEW004 SCT009 OVC018 12/12 A3000 RMK AO2 P0015 T01170117 $
  • 070108Z 33011KT 1 1/2SM R18C/4000VP6000FT +RA BR FEW011 OVC019 12/12 A3002 RMK AO2 PRESRR P0006 T01170117 $
  • 070059Z 00000KT 2SM +RA BR OVC019 12/12 A3000 RMK AO2 P0000 T01170117 $

TAF KCVG
Valid from the 07 at 00:00 until the 08 at 06:00 UTC


062330Z 0700/0806 18004KT 1SM -RA BR OVC003
TEMPO 0700/0702 TSRA OVC003CB
FM070400 VRB03KT 1/2SM FG VCSH OVC002
FM070900 34003KT 1SM BR OVC002
FM071500 34004KT 3SM BR OVC005
FM071800 35004KT P6SM OVC012
FM072300 02003KT P6SM BKN040
KZID FIR / North America



MET'MAP, your aeronautical weather chart ! - Copyright ORBIFLY December 2007 - Disclaimer

ORBIFLY MET'MAP TEAM :

Programming & Development : Alexandra Zaïnal
Original concept : Baudouin d'Aumeries
Technical & hardware support : Manuel Goepfert
Assistance : Marc-Olivier Méhu




SOURCES & CREDITS :

   NOAA       Earth
Advisory